createdAt,value
2019-04-20T00:02:25.395Z,15.59
2019-04-20T00:05:23.552Z,15.61
2019-04-20T00:08:08.885Z,15.58
2019-04-20T00:10:58.050Z,15.54
2019-04-20T00:13:40.658Z,15.54
2019-04-20T00:16:02.005Z,15.52
2019-04-20T00:18:34.711Z,15.38
2019-04-20T00:21:19.218Z,15.38
2019-04-20T00:23:51.812Z,15.34
2019-04-20T00:27:02.854Z,15.43
2019-04-20T00:29:17.653Z,15.35
2019-04-20T00:31:45.840Z,15.26
2019-04-20T00:34:09.147Z,15.26
2019-04-20T00:36:30.844Z,15.28
2019-04-20T00:39:03.851Z,15.21
2019-04-20T00:41:29.847Z,15.25
2019-04-20T00:44:04.758Z,15.25
2019-04-20T00:46:39.655Z,15.28
2019-04-20T00:49:11.027Z,15.26
2019-04-20T00:51:46.654Z,15.30
2019-04-20T00:54:00.887Z,15.23
2019-04-20T00:56:30.981Z,15.16
2019-04-20T00:59:13.081Z,15.18
2019-04-20T01:01:47.650Z,15.05
2019-04-20T01:04:21.948Z,15.08
2019-04-20T01:07:06.232Z,15.16
2019-04-20T01:09:41.304Z,15.04
2019-04-20T01:12:17.282Z,15.09
2019-04-20T01:14:48.681Z,15.06
2019-04-20T01:17:13.383Z,14.93
2019-04-20T01:19:42.281Z,14.79
2019-04-20T01:22:15.986Z,14.79
2019-04-20T01:24:46.263Z,14.79
2019-04-20T01:27:31.139Z,14.81
2019-04-20T01:29:48.418Z,14.77
2019-04-20T01:32:24.706Z,14.73
2019-04-20T01:34:55.301Z,14.73
2019-04-20T01:37:26.095Z,14.69
2019-04-20T01:39:50.235Z,14.66
2019-04-20T01:42:15.108Z,14.48
2019-04-20T01:44:48.562Z,14.40
2019-04-20T01:47:15.063Z,14.25
2019-04-20T01:49:47.714Z,14.08
2019-04-20T01:52:20.067Z,14.08
2019-04-20T01:55:08.715Z,13.98
2019-04-20T01:57:54.788Z,13.97
2019-04-20T02:00:32.723Z,14.20
2019-04-20T02:03:15.278Z,14.15
2019-04-20T02:05:53.130Z,14.29
2019-04-20T02:08:20.322Z,14.21
2019-04-20T02:10:51.843Z,14.26
2019-04-20T02:13:15.428Z,14.23
2019-04-20T02:15:48.560Z,14.17
2019-04-20T02:18:26.990Z,14.08
2019-04-20T02:21:04.862Z,14.00
2019-04-20T02:23:29.280Z,14.06
2019-04-20T02:25:45.955Z,14.05
2019-04-20T02:28:36.201Z,13.92
2019-04-20T02:31:24.799Z,13.92
2019-04-20T02:44:23.090Z,13.82
2019-04-20T02:46:33.700Z,13.81
2019-04-20T02:49:18.176Z,13.78
2019-04-20T02:56:43.204Z,13.71
2019-04-20T02:59:25.113Z,13.78
2019-04-20T03:01:36.004Z,13.77
2019-04-20T03:03:51.033Z,13.64
2019-04-20T03:06:31.372Z,13.62
2019-04-20T03:09:08.995Z,13.54
2019-04-20T03:11:49.760Z,13.62
2019-04-20T03:14:03.273Z,13.72
2019-04-20T03:16:35.664Z,13.70
2019-04-20T03:19:03.192Z,13.59
2019-04-20T03:21:47.633Z,13.46
2019-04-20T03:24:20.419Z,13.39
2019-04-20T03:26:40.185Z,13.37
2019-04-20T03:29:37.263Z,13.40
2019-04-20T03:32:38.322Z,13.26
2019-04-20T03:37:21.748Z,13.04
2019-04-20T03:39:40.457Z,12.74
2019-04-20T03:41:56.667Z,12.74
2019-04-20T03:44:26.487Z,12.65
2019-04-20T03:46:59.685Z,12.50
2019-04-20T03:49:48.228Z,12.31
2019-04-20T03:52:27.476Z,12.21
2019-04-20T03:55:16.548Z,12.20
2019-04-20T03:57:59.510Z,12.20
2019-04-20T04:00:43.330Z,12.04
2019-04-20T04:03:29.342Z,12.24
2019-04-20T04:05:50.726Z,12.40
2019-04-20T04:08:17.060Z,12.56
2019-04-20T04:10:54.784Z,12.63
2019-04-20T04:13:11.848Z,12.56
2019-04-20T04:15:47.909Z,12.82
2019-04-20T04:18:23.048Z,12.75
2019-04-20T04:20:51.278Z,12.73
2019-04-20T04:23:35.725Z,12.81
2019-04-20T04:26:05.865Z,12.94
2019-04-20T04:28:31.215Z,12.83
2019-04-20T04:31:07.896Z,12.78
2019-04-20T04:36:00.547Z,12.84
2019-04-20T04:38:43.526Z,12.78
2019-04-20T04:41:17.036Z,12.82
2019-04-20T04:43:37.222Z,12.74
2019-04-20T04:45:48.892Z,12.77
2019-04-20T04:48:23.783Z,12.73
2019-04-20T04:50:57.417Z,12.68
2019-04-20T04:53:31.304Z,12.67
2019-04-20T04:55:56.495Z,12.75
2019-04-20T04:58:19.627Z,12.74
2019-04-20T05:00:49.331Z,12.75
2019-04-20T05:03:33.675Z,12.70
2019-04-20T05:06:25.018Z,12.72
2019-04-20T05:08:45.288Z,12.69
2019-04-20T05:11:09.270Z,12.82
2019-04-20T05:13:47.938Z,12.70
2019-04-20T05:16:33.694Z,12.61
2019-04-20T05:19:07.718Z,12.75
2019-04-20T05:22:05.414Z,12.73
2019-04-20T05:24:32.249Z,12.79
2019-04-20T05:27:07.246Z,12.79
2019-04-20T05:29:24.378Z,12.73
2019-04-20T05:31:54.346Z,12.80
2019-04-20T05:34:40.348Z,12.85
2019-04-20T05:37:17.609Z,12.87
2019-04-20T05:39:39.886Z,12.92
2019-04-20T05:42:09.299Z,12.93
2019-04-20T05:44:48.616Z,13.03
2019-04-20T05:47:13.547Z,13.07
2019-04-20T05:49:41.943Z,13.19
2019-04-20T05:52:25.024Z,13.25
2019-04-20T05:54:44.665Z,13.33
2019-04-20T05:57:21.074Z,13.36
2019-04-20T05:59:51.394Z,13.51
2019-04-20T06:02:15.951Z,13.52
2019-04-20T06:04:59.687Z,13.56
2019-04-20T06:07:21.432Z,13.60
2019-04-20T06:09:47.910Z,13.69
2019-04-20T06:12:25.476Z,13.71
2019-04-20T06:15:04.143Z,13.89
2019-04-20T06:17:57.994Z,14.01
2019-04-20T06:20:33.434Z,14.07
2019-04-20T06:23:15.334Z,14.10
2019-04-20T06:28:06.583Z,14.34
2019-04-20T06:30:37.166Z,14.42
2019-04-20T06:34:01.512Z,14.48
2019-04-20T06:39:00.362Z,14.75
2019-04-20T06:41:33.009Z,14.81
2019-04-20T06:43:59.006Z,15.02
2019-04-20T06:46:22.684Z,15.19
2019-04-20T06:48:51.606Z,15.39
2019-04-20T06:51:25.084Z,15.39
2019-04-20T06:54:09.261Z,15.55
2019-04-20T06:56:48.531Z,15.73
2019-04-20T06:59:21.584Z,15.73
2019-04-20T07:01:56.786Z,15.91
2019-04-20T07:04:40.221Z,15.92
2019-04-20T07:09:21.757Z,16.22
2019-04-20T07:11:46.472Z,16.29
2019-04-20T07:14:04.907Z,16.35
2019-04-20T07:17:10.288Z,16.45
2019-04-20T07:19:40.306Z,16.59
2019-04-20T07:22:25.064Z,16.59
2019-04-20T07:24:53.189Z,16.76
2019-04-20T07:27:19.319Z,16.84
2019-04-20T07:29:52.006Z,16.84
2019-04-20T07:32:09.759Z,16.84
2019-04-20T07:34:51.612Z,16.97
2019-04-20T07:37:51.419Z,17.12
2019-04-20T07:40:01.079Z,17.12
2019-04-20T07:42:29.076Z,17.23
2019-04-20T07:45:02.968Z,17.23
2019-04-20T07:47:38.071Z,17.37
2019-04-20T07:49:56.811Z,17.40
2019-04-20T07:52:08.391Z,17.42
2019-04-20T07:55:17.273Z,17.60
2019-04-20T07:57:25.883Z,17.60
2019-04-20T08:00:01.713Z,17.83
2019-04-20T08:06:02.462Z,17.86
2019-04-20T08:08:40.658Z,18.16
2019-04-20T08:11:12.376Z,18.13
2019-04-20T08:13:51.253Z,18.21
2019-04-20T08:16:35.582Z,18.21
2019-04-20T08:18:49.915Z,18.34
2019-04-20T08:21:21.341Z,18.27
2019-04-20T08:23:45.898Z,18.46
2019-04-20T08:26:07.867Z,18.46
2019-04-20T08:28:39.442Z,18.45
2019-04-20T08:31:33.414Z,18.67
2019-04-20T08:34:31.270Z,18.67
2019-04-20T08:36:49.184Z,18.75
2019-04-20T08:39:30.793Z,18.62
2019-04-20T08:41:54.797Z,18.84
2019-04-20T08:44:42.885Z,18.84
2019-04-20T08:46:58.464Z,18.90
2019-04-20T08:49:26.318Z,18.93
2019-04-20T08:52:05.856Z,18.95
2019-04-20T08:54:21.955Z,19.13
2019-04-20T08:56:42.521Z,19.18
2019-04-20T08:59:03.997Z,19.31
2019-04-20T09:01:35.387Z,19.31
2019-04-20T09:04:09.751Z,19.42
2019-04-20T09:06:47.032Z,19.46
2019-04-20T09:09:33.160Z,19.46
2019-04-20T09:11:55.620Z,19.43
2019-04-20T09:14:21.393Z,19.50
2019-04-20T09:26:37.189Z,19.85
2019-04-20T09:29:05.423Z,20.08
2019-04-20T09:31:52.133Z,20.10
2019-04-20T09:34:42.384Z,20.17
2019-04-20T09:37:27.879Z,20.29
2019-04-20T09:40:06.029Z,20.29
2019-04-20T09:42:38.479Z,20.31
2019-04-20T09:45:13.366Z,20.36
2019-04-20T09:47:45.011Z,20.43
2019-04-20T09:50:27.860Z,20.43
2019-04-20T09:52:57.071Z,20.67
2019-04-20T09:55:24.405Z,20.74
2019-04-20T09:57:57.587Z,20.74
2019-04-20T10:00:32.363Z,20.79
2019-04-20T10:02:44.644Z,20.90
2019-04-20T10:05:13.812Z,21.05
2019-04-20T10:07:43.858Z,21.06
2019-04-20T10:10:21.210Z,21.19
2019-04-20T10:12:43.959Z,21.37
2019-04-20T10:15:19.094Z,21.47
2019-04-20T10:17:43.659Z,21.52
2019-04-20T10:20:20.845Z,21.40
2019-04-20T10:22:42.896Z,21.57
2019-04-20T10:25:12.857Z,21.85
2019-04-20T10:27:42.391Z,21.92
2019-04-20T10:30:12.542Z,21.84
2019-04-20T10:32:45.593Z,21.87
2019-04-20T10:35:15.093Z,21.84
2019-04-20T10:37:47.320Z,22.01
2019-04-20T10:40:31.586Z,22.10
2019-04-20T10:42:46.533Z,22.07
2019-04-20T10:45:15.291Z,22.07
2019-04-20T10:47:52.514Z,22.16
2019-04-20T10:50:22.907Z,22.14
2019-04-20T10:52:51.971Z,22.16
2019-04-20T10:55:20.841Z,22.28
2019-04-20T10:57:49.412Z,22.43
2019-04-20T11:00:21.689Z,22.52
2019-04-20T11:02:51.281Z,22.53
2019-04-20T11:05:20.676Z,22.67
2019-04-20T11:07:50.487Z,22.84
2019-04-20T11:10:25.319Z,22.81
2019-04-20T11:12:50.513Z,22.79
2019-04-20T11:15:20.948Z,22.97
2019-04-20T11:17:49.626Z,22.95
2019-04-20T11:20:19.232Z,22.97
2019-04-20T11:22:48.525Z,23.01
2019-04-20T11:25:17.307Z,23.09
2019-04-20T11:27:46.057Z,23.13
2019-04-20T11:30:16.049Z,23.13
2019-04-20T11:32:44.737Z,23.17
2019-04-20T11:35:22.921Z,23.28
2019-04-20T11:37:44.902Z,23.21
2019-04-20T11:40:14.998Z,23.21
2019-04-20T11:42:43.969Z,23.01
2019-04-20T11:45:13.122Z,23.22
2019-04-20T11:47:43.176Z,23.21
2019-04-20T11:50:13.692Z,23.32
2019-04-20T11:52:47.505Z,23.28
2019-04-20T11:55:12.800Z,23.46
2019-04-20T11:57:41.400Z,23.58
2019-04-20T12:00:13.408Z,23.61
2019-04-20T12:03:09.824Z,23.70
2019-04-20T12:05:38.158Z,23.74
2019-04-20T12:08:03.014Z,23.96
2019-04-20T12:10:33.050Z,24.03
2019-04-20T12:13:01.915Z,24.03
2019-04-20T12:15:34.529Z,24.06
2019-04-20T12:18:01.935Z,24.00
2019-04-20T12:20:30.833Z,24.06
2019-04-20T12:23:00.241Z,24.18
2019-04-20T12:25:31.516Z,24.15
2019-04-20T12:28:01.965Z,24.26
2019-04-20T12:30:30.060Z,24.30
2019-04-20T12:33:01.886Z,24.32
2019-04-20T12:35:30.000Z,24.35
2019-04-20T12:37:59.019Z,24.14
2019-04-20T12:40:28.134Z,24.07
2019-04-20T12:42:57.252Z,24.17
2019-04-20T12:45:29.269Z,24.31
2019-04-20T12:47:58.000Z,24.24
2019-04-20T12:50:27.668Z,24.32
2019-04-20T12:52:56.778Z,24.40
2019-04-20T12:55:26.408Z,24.42
2019-04-20T12:57:55.029Z,24.50
2019-04-20T13:00:30.440Z,24.49
2019-04-20T13:02:59.219Z,24.56
2019-04-20T13:05:27.975Z,24.64
2019-04-20T13:08:00.689Z,24.65
2019-04-20T13:10:27.526Z,24.65
2019-04-20T13:13:18.584Z,24.57
2019-04-20T13:16:06.426Z,24.40
2019-04-20T13:18:57.252Z,24.53
2019-04-20T13:21:27.117Z,24.58
2019-04-20T13:23:56.535Z,24.53
2019-04-20T13:26:26.886Z,24.49
2019-04-20T13:28:56.829Z,24.61
2019-04-20T13:31:26.132Z,24.74
2019-04-20T13:33:54.994Z,24.96
2019-04-20T13:36:24.155Z,24.97
2019-04-20T13:38:53.062Z,24.91
2019-04-20T13:41:24.118Z,25.01
2019-04-20T13:43:54.849Z,25.01
2019-04-20T13:46:24.817Z,24.98
2019-04-20T13:48:55.088Z,24.97
2019-04-20T13:51:23.829Z,24.97
2019-04-20T13:53:53.279Z,24.84
2019-04-20T13:56:23.771Z,24.93
2019-04-20T13:59:03.420Z,25.02
2019-04-20T14:01:41.204Z,25.19
2019-04-20T14:04:16.770Z,25.21
2019-04-20T14:06:45.752Z,25.25
2019-04-20T14:09:15.114Z,25.26
2019-04-20T14:11:45.292Z,25.23
2019-04-20T14:14:15.161Z,25.28
2019-04-20T14:16:45.221Z,25.35
2019-04-20T14:19:14.473Z,25.37
2019-04-20T14:21:43.988Z,25.41
2019-04-20T14:24:13.109Z,25.43
2019-04-20T14:26:42.894Z,25.44
2019-04-20T14:29:12.731Z,25.40
2019-04-20T14:31:41.849Z,25.28
2019-04-20T14:34:10.967Z,25.40
2019-04-20T14:36:41.145Z,25.47
2019-04-20T14:39:10.142Z,25.40
2019-04-20T14:41:40.232Z,25.40
2019-04-20T14:44:10.002Z,25.51
2019-04-20T14:46:39.957Z,25.52
2019-04-20T14:49:08.754Z,25.48
2019-04-20T14:51:37.538Z,25.44
2019-04-20T14:54:07.514Z,25.48
2019-04-20T14:56:36.117Z,25.38
2019-04-20T14:59:13.539Z,25.55
2019-04-20T15:01:45.260Z,25.68
2019-04-20T15:04:17.909Z,25.76
2019-04-20T15:06:44.503Z,25.59
2019-04-20T15:09:14.704Z,25.62
2019-04-20T15:11:45.155Z,25.55
2019-04-20T15:14:14.585Z,25.57
2019-04-20T15:16:44.583Z,25.62
2019-04-20T15:19:47.633Z,25.59
2019-04-20T15:22:39.123Z,25.58
2019-04-20T15:25:09.476Z,25.57
2019-04-20T15:27:41.117Z,25.52
2019-04-20T15:30:09.362Z,25.56
2019-04-20T15:32:38.941Z,25.34
2019-04-20T15:35:09.044Z,25.48
2019-04-20T15:37:39.385Z,25.53
2019-04-20T15:40:08.920Z,25.52
2019-04-20T15:42:49.608Z,25.58
2019-04-20T15:45:09.400Z,25.46
2019-04-20T15:47:38.370Z,25.53
2019-04-20T15:50:07.942Z,25.53
2019-04-20T15:52:42.454Z,25.48
2019-04-20T15:55:17.291Z,25.52
2019-04-20T15:57:38.658Z,25.53
2019-04-20T16:00:08.762Z,25.52
2019-04-20T16:02:47.407Z,25.50
2019-04-20T16:05:35.576Z,25.38
2019-04-20T16:08:22.137Z,25.35
2019-04-20T16:10:51.020Z,25.28
2019-04-20T16:13:26.108Z,25.23
2019-04-20T16:15:50.058Z,25.24
2019-04-20T16:18:18.945Z,25.23
2019-04-20T16:20:58.169Z,25.25
2019-04-20T16:23:18.645Z,25.30
2019-04-20T16:25:53.419Z,25.21
2019-04-20T16:28:23.670Z,25.21
2019-04-20T16:30:53.597Z,25.29
2019-04-20T16:33:22.432Z,25.20
2019-04-20T16:35:52.324Z,25.15
2019-04-20T16:38:22.360Z,25.11
2019-04-20T16:40:52.530Z,25.12
2019-04-20T16:43:29.149Z,25.06
2019-04-20T16:45:52.976Z,25.13
2019-04-20T16:48:22.124Z,25.16
2019-04-20T16:50:51.060Z,25.08
2019-04-20T16:53:19.693Z,25.07
2019-04-20T16:55:48.527Z,25.15
2019-04-20T16:58:19.811Z,25.13
2019-04-20T17:00:50.010Z,25.05
2019-04-20T17:03:19.522Z,25.00
2019-04-20T17:05:51.012Z,25.08
2019-04-20T17:08:18.817Z,25.06
2019-04-20T17:10:48.839Z,25.03
2019-04-20T17:13:30.417Z,25.03
2019-04-20T17:15:48.188Z,24.95
2019-04-20T17:18:16.810Z,25.02
2019-04-20T17:20:46.419Z,24.99
2019-04-20T17:23:15.374Z,24.87
2019-04-20T17:25:44.098Z,24.83
2019-04-20T17:28:35.226Z,24.87
2019-04-20T17:31:13.560Z,24.81
2019-04-20T17:33:53.366Z,24.65
2019-04-20T17:36:21.800Z,24.61
2019-04-20T17:38:52.643Z,24.55
2019-04-20T17:41:38.462Z,24.53
2019-04-20T17:44:06.041Z,24.47
2019-04-20T17:46:27.261Z,24.34
2019-04-20T17:49:07.565Z,24.43
2019-04-20T17:51:39.601Z,24.29
2019-04-20T17:54:08.707Z,24.30
2019-04-20T17:56:40.271Z,24.21
2019-04-20T17:59:10.357Z,24.02
2019-04-20T18:02:11.857Z,24.05
2019-04-20T18:05:06.538Z,23.95
2019-04-20T18:07:36.623Z,23.87
2019-04-20T18:10:03.156Z,23.77
2019-04-20T18:12:23.144Z,23.85
2019-04-20T18:14:53.457Z,23.72
2019-04-20T18:17:51.609Z,23.60
2019-04-20T18:20:12.687Z,23.70
2019-04-20T18:22:44.187Z,23.59
2019-04-20T18:25:32.896Z,23.35
2019-04-20T18:28:01.190Z,23.45
2019-04-20T18:30:34.603Z,23.41
2019-04-20T18:32:53.438Z,23.15
2019-04-20T18:35:24.508Z,23.14
2019-04-20T18:38:00.765Z,23.05
2019-04-20T18:40:32.558Z,22.96
2019-04-20T18:43:03.947Z,22.77
2019-04-20T18:45:39.688Z,22.73
2019-04-20T18:48:14.554Z,22.67
2019-04-20T18:50:32.594Z,22.69
2019-04-20T18:52:56.216Z,22.50
2019-04-20T18:55:38.311Z,22.43
2019-04-20T18:57:55.218Z,22.44
2019-04-20T19:00:31.582Z,22.40
2019-04-20T19:03:01.359Z,22.29
2019-04-20T19:05:26.589Z,22.22
2019-04-20T19:07:59.887Z,22.15
2019-04-20T19:10:29.611Z,22.11
2019-04-20T19:13:04.328Z,22.07
2019-04-20T19:16:04.354Z,21.92
2019-04-20T19:18:52.042Z,21.77
2019-04-20T19:21:09.112Z,21.63
2019-04-20T19:23:47.654Z,21.57
2019-04-20T19:26:16.313Z,21.58
2019-04-20T19:28:49.550Z,21.45
2019-04-20T19:31:31.733Z,21.44
2019-04-20T19:34:09.354Z,21.44
2019-04-20T19:36:28.789Z,21.43
2019-04-20T19:39:10.780Z,21.22
2019-04-20T19:41:42.884Z,21.25
2019-04-20T19:44:16.072Z,21.18
2019-04-20T19:47:09.144Z,21.19
2019-04-20T19:49:25.669Z,21.18
2019-04-20T19:52:25.495Z,21.13
2019-04-20T19:54:46.718Z,21.09
2019-04-20T19:57:22.103Z,21.02
2019-04-20T19:59:43.480Z,20.99
2019-04-20T20:02:07.736Z,20.90
2019-04-20T20:04:48.234Z,20.80
2019-04-20T20:07:22.033Z,20.80
2019-04-20T20:09:54.947Z,20.68
2019-04-20T20:12:25.475Z,20.53
2019-04-20T20:15:01.393Z,20.38
2019-04-20T20:17:48.402Z,20.34
2019-04-20T20:20:30.770Z,20.38
2019-04-20T20:22:45.358Z,20.30
2019-04-20T20:25:12.787Z,20.25
2019-04-20T20:27:51.193Z,20.09
2019-04-20T20:30:24.448Z,19.94
2019-04-20T20:33:11.545Z,19.91
2019-04-20T20:35:31.334Z,19.90
2019-04-20T20:38:11.780Z,19.84
2019-04-20T20:40:38.536Z,19.78
2019-04-20T20:43:16.138Z,19.62
2019-04-20T20:46:17.218Z,19.47
2019-04-20T20:49:03.485Z,19.34
2019-04-20T20:51:34.711Z,19.42
2019-04-20T20:54:21.602Z,19.37
2019-04-20T20:56:48.547Z,19.20
2019-04-20T20:59:25.738Z,19.00
2019-04-20T21:01:52.442Z,18.82
2019-04-20T21:04:15.349Z,18.74
2019-04-20T21:06:46.525Z,18.60
2019-04-20T21:09:18.586Z,18.48
2019-04-20T21:11:51.098Z,18.44
2019-04-20T21:14:26.097Z,18.52
2019-04-20T21:17:01.359Z,18.56
2019-04-20T21:19:45.220Z,18.51
2019-04-20T21:22:04.820Z,18.53
2019-04-20T21:24:33.698Z,18.47
2019-04-20T21:27:07.917Z,18.46
2019-04-20T21:29:43.093Z,18.42
2019-04-20T21:32:14.073Z,18.31
2019-04-20T21:34:50.376Z,18.33
2019-04-20T21:37:19.507Z,18.27
2019-04-20T21:39:56.172Z,18.16
2019-04-20T21:42:25.222Z,18.24
2019-04-20T21:45:05.522Z,18.15
2019-04-20T21:47:31.453Z,18.09
2019-04-20T21:50:18.738Z,17.94
2019-04-20T21:52:39.248Z,17.87
2019-04-20T21:55:03.783Z,18.01
2019-04-20T21:57:42.171Z,18.03
2019-04-20T22:00:25.116Z,17.86
2019-04-20T22:02:56.179Z,17.64
2019-04-20T22:05:21.137Z,17.64
2019-04-20T22:07:50.459Z,17.70
2019-04-20T22:10:24.633Z,17.71
2019-04-20T22:12:58.738Z,17.68
2019-04-20T22:15:31.589Z,17.76
2019-04-20T22:18:09.074Z,17.68
2019-04-20T22:20:37.235Z,17.82
2019-04-20T22:23:15.777Z,17.70
2019-04-20T22:25:53.028Z,17.71
2019-04-20T22:28:14.184Z,17.55
2019-04-20T22:30:50.396Z,17.60
2019-04-20T22:33:29.853Z,17.60
2019-04-20T22:36:04.169Z,17.46
2019-04-20T22:38:55.858Z,17.46
2019-04-20T22:41:23.208Z,17.51
2019-04-20T22:44:02.818Z,17.51
2019-04-20T22:46:35.755Z,17.48
2019-04-20T22:49:20.847Z,17.40
2019-04-20T22:51:48.223Z,17.41
2019-04-20T22:54:29.761Z,17.51
2019-04-20T22:56:55.149Z,17.42
2019-04-20T22:59:20.329Z,17.37
2019-04-20T23:01:54.682Z,17.28
2019-04-20T23:04:19.050Z,17.23
2019-04-20T23:06:50.253Z,17.15
2019-04-20T23:09:20.578Z,17.18
2019-04-20T23:12:04.931Z,17.18
2019-04-20T23:14:29.963Z,17.07
2019-04-20T23:17:02.526Z,17.03
2019-04-20T23:19:44.885Z,17.04
2019-04-20T23:22:11.669Z,17.11
2019-04-20T23:24:42.896Z,16.97
2019-04-20T23:27:28.623Z,16.97
2019-04-20T23:29:53.334Z,16.88
2019-04-20T23:32:28.309Z,16.79
2019-04-20T23:35:03.476Z,16.79
2019-04-20T23:37:32.981Z,16.84
2019-04-20T23:40:09.128Z,16.87
2019-04-20T23:42:49.591Z,16.87
2019-04-20T23:45:59.201Z,16.61
2019-04-20T23:48:39.270Z,16.48
2019-04-20T23:51:29.577Z,16.56
2019-04-20T23:53:51.231Z,16.48
2019-04-20T23:56:16.803Z,16.41
2019-04-20T23:58:46.593Z,16.41
